sensor_id;sensor_type;location;lat;lon;timestamp;pressure;altitude;pressure_sealevel;temperature;humidity
3142;BME280;1581;51.568;6.998;2023-07-31T00:00:31;100364.31;;;18.60;100.00
3142;BME280;1581;51.568;6.998;2023-07-31T00:03:00;100361.34;;;18.61;100.00
3142;BME280;1581;51.568;6.998;2023-07-31T00:05:27;100359.97;;;18.59;100.00
3142;BME280;1581;51.568;6.998;2023-07-31T00:07:56;100358.00;;;18.54;100.00
3142;BME280;1581;51.568;6.998;2023-07-31T00:10:24;100359.59;;;18.34;100.00
3142;BME280;1581;51.568;6.998;2023-07-31T00:12:52;100352.78;;;18.48;100.00
3142;BME280;1581;51.568;6.998;2023-07-31T00:15:20;100349.97;;;18.59;100.00
3142;BME280;1581;51.568;6.998;2023-07-31T00:17:47;100340.28;;;18.42;100.00
3142;BME280;1581;51.568;6.998;2023-07-31T00:20:15;100349.78;;;18.44;100.00
3142;BME280;1581;51.568;6.998;2023-07-31T00:22:43;100347.41;;;18.48;100.00
3142;BME280;1581;51.568;6.998;2023-07-31T00:25:12;100342.81;;;18.48;100.00
3142;BME280;1581;51.568;6.998;2023-07-31T00:27:41;100350.59;;;18.45;100.00
3142;BME280;1581;51.568;6.998;2023-07-31T00:30:11;100339.31;;;18.48;100.00
3142;BME280;1581;51.568;6.998;2023-07-31T00:32:39;100338.59;;;18.57;100.00
3142;BME280;1581;51.568;6.998;2023-07-31T00:35:07;100327.19;;;18.50;100.00
3142;BME280;1581;51.568;6.998;2023-07-31T00:37:35;100332.84;;;18.49;100.00
3142;BME280;1581;51.568;6.998;2023-07-31T00:40:03;100335.53;;;18.49;100.00
3142;BME280;1581;51.568;6.998;2023-07-31T00:42:33;100338.81;;;18.51;100.00
3142;BME280;1581;51.568;6.998;2023-07-31T00:45:00;100337.19;;;18.50;100.00
3142;BME280;1581;51.568;6.998;2023-07-31T00:47:28;100347.66;;;18.46;100.00
3142;BME280;1581;51.568;6.998;2023-07-31T00:49:56;100345.69;;;18.42;100.00
3142;BME280;1581;51.568;6.998;2023-07-31T00:52:24;100333.00;;;18.42;100.00
3142;BME280;1581;51.568;6.998;2023-07-31T00:54:52;100333.06;;;18.47;100.00
3142;BME280;1581;51.568;6.998;2023-07-31T00:57:20;100328.81;;;18.51;100.00
3142;BME280;1581;51.568;6.998;2023-07-31T00:59:49;100333.41;;;18.51;100.00
3142;BME280;1581;51.568;6.998;2023-07-31T01:02:16;100334.84;;;18.58;100.00
3142;BME280;1581;51.568;6.998;2023-07-31T01:04:46;100342.81;;;18.48;100.00
3142;BME280;1581;51.568;6.998;2023-07-31T01:07:22;100345.13;;;18.40;100.00
3142;BME280;1581;51.568;6.998;2023-07-31T01:09:59;100330.31;;;18.42;100.00
3142;BME280;1581;51.568;6.998;2023-07-31T01:12:31;100336.53;;;18.43;100.00
3142;BME280;1581;51.568;6.998;2023-07-31T01:15:09;100333.19;;;18.57;100.00
3142;BME280;1581;51.568;6.998;2023-07-31T01:17:38;100332.91;;;18.54;100.00
3142;BME280;1581;51.568;6.998;2023-07-31T01:20:10;100334.22;;;18.51;100.00
3142;BME280;1581;51.568;6.998;2023-07-31T01:23:34;100327.31;;;18.39;100.00
3142;BME280;1581;51.568;6.998;2023-07-31T01:26:11;100332.00;;;18.48;100.00
3142;BME280;1581;51.568;6.998;2023-07-31T01:28:51;100344.75;;;18.53;100.00
3142;BME280;1581;51.568;6.998;2023-07-31T01:31:24;100336.53;;;18.43;100.00
3142;BME280;1581;51.568;6.998;2023-07-31T01:33:56;100329.97;;;18.55;100.00
3142;BME280;1581;51.568;6.998;2023-07-31T01:36:25;100323.91;;;18.48;100.00
3142;BME280;1581;51.568;6.998;2023-07-31T01:38:57;100333.41;;;18.51;100.00
3142;BME280;1581;51.568;6.998;2023-07-31T01:41:26;100334.22;;;18.51;100.00
3142;BME280;1581;51.568;6.998;2023-07-31T01:43:54;100328.34;;;18.54;100.00
3142;BME280;1581;51.568;6.998;2023-07-31T01:46:21;100323.91;;;18.48;100.00
3142;BME280;1581;51.568;6.998;2023-07-31T01:48:49;100332.09;;;18.53;100.00
3142;BME280;1581;51.568;6.998;2023-07-31T01:51:17;100316.06;;;18.47;100.00
3142;BME280;1581;51.568;6.998;2023-07-31T01:53:44;100324.19;;;18.47;100.00
3142;BME280;1581;51.568;6.998;2023-07-31T01:56:12;100323.78;;;18.38;100.00
3142;BME280;1581;51.568;6.998;2023-07-31T01:58:41;100305.78;;;18.44;100.00
3142;BME280;1581;51.568;6.998;2023-07-31T02:01:09;100314.75;;;18.49;100.00
3142;BME280;1581;51.568;6.998;2023-07-31T02:03:37;100304.97;;;18.43;100.00
3142;BME280;1581;51.568;6.998;2023-07-31T02:06:05;100316.56;;;18.44;100.00
3142;BME280;1581;51.568;6.998;2023-07-31T02:08:32;100318.06;;;18.35;100.00
3142;BME280;1581;51.568;6.998;2023-07-31T02:11:06;100309.41;;;18.33;100.00
3142;BME280;1581;51.568;6.998;2023-07-31T02:13:33;100316.38;;;18.29;100.00
3142;BME280;1581;51.568;6.998;2023-07-31T02:16:05;100306.16;;;18.31;100.00
3142;BME280;1581;51.568;6.998;2023-07-31T02:18:35;100311.03;;;18.34;100.00
3142;BME280;1581;51.568;6.998;2023-07-31T02:21:06;100310.41;;;18.27;100.00
3142;BME280;1581;51.568;6.998;2023-07-31T02:23:37;100312.34;;;18.31;100.00
3142;BME280;1581;51.568;6.998;2023-07-31T02:26:06;100308.09;;;18.35;100.00
3142;BME280;1581;51.568;6.998;2023-07-31T02:28:34;100310.47;;;18.32;100.00
3142;BME280;1581;51.568;6.998;2023-07-31T02:31:03;100306.78;;;18.38;100.00
3142;BME280;1581;51.568;6.998;2023-07-31T02:33:30;100301.31;;;18.33;100.00
3142;BME280;1581;51.568;6.998;2023-07-31T02:35:58;100304.41;;;18.41;100.00
3142;BME280;1581;51.568;6.998;2023-07-31T02:38:26;100296.63;;;18.45;100.00
3142;BME280;1581;51.568;6.998;2023-07-31T02:40:54;100300.25;;;18.34;100.00
3142;BME280;1581;51.568;6.998;2023-07-31T02:43:21;100304.56;;;18.35;100.00
3142;BME280;1581;51.568;6.998;2023-07-31T02:45:51;100297.53;;;18.34;100.00
3142;BME280;1581;51.568;6.998;2023-07-31T02:48:21;100304.25;;;18.31;100.00
3142;BME280;1581;51.568;6.998;2023-07-31T02:50:49;100300.16;;;18.45;100.00
3142;BME280;1581;51.568;6.998;2023-07-31T02:53:16;100307.59;;;18.38;100.00
3142;BME280;1581;51.568;6.998;2023-07-31T02:55:44;100304.56;;;18.35;100.00
3142;BME280;1581;51.568;6.998;2023-07-31T02:58:12;100291.16;;;18.40;100.00
3142;BME280;1581;51.568;6.998;2023-07-31T03:00:42;100297.31;;;18.35;100.00
3142;BME280;1581;51.568;6.998;2023-07-31T03:03:10;100284.56;;;18.31;100.00
3142;BME280;1581;51.568;6.998;2023-07-31T03:05:40;100282.63;;;18.26;100.00
3142;BME280;1581;51.568;6.998;2023-07-31T03:08:07;100282.06;;;18.24;100.00
3142;BME280;1581;51.568;6.998;2023-07-31T03:10:35;100278.03;;;18.27;100.00
3142;BME280;1581;51.568;6.998;2023-07-31T03:13:03;100278.97;;;18.37;100.00
3142;BME280;1581;51.568;6.998;2023-07-31T03:15:30;100280.59;;;18.38;100.00
3142;BME280;1581;51.568;6.998;2023-07-31T03:17:58;100289.59;;;18.44;100.00
3142;BME280;1581;51.568;6.998;2023-07-31T03:20:26;100283.31;;;18.38;100.00
3142;BME280;1581;51.568;6.998;2023-07-31T03:22:55;100278.78;;;18.44;100.00
3142;BME280;1581;51.568;6.998;2023-07-31T03:25:23;100283.06;;;18.40;100.00
3142;BME280;1581;51.568;6.998;2023-07-31T03:27:51;100285.94;;;18.33;100.00
3142;BME280;1581;51.568;6.998;2023-07-31T03:30:19;100275.97;;;18.34;100.00
3142;BME280;1581;51.568;6.998;2023-07-31T03:32:47;100291.72;;;18.42;100.00
3142;BME280;1581;51.568;6.998;2023-07-31T03:35:15;100287.16;;;18.42;100.00
3142;BME280;1581;51.568;6.998;2023-07-31T03:37:43;100284.84;;;18.51;100.00
3142;BME280;1581;51.568;6.998;2023-07-31T03:40:12;100292.06;;;18.45;100.00
3142;BME280;1581;51.568;6.998;2023-07-31T03:42:40;100286.41;;;18.47;100.00
3142;BME280;1581;51.568;6.998;2023-07-31T03:45:09;100285.81;;;18.45;100.00
3142;BME280;1581;51.568;6.998;2023-07-31T03:47:37;100283.44;;;18.48;100.00
3142;BME280;1581;51.568;6.998;2023-07-31T03:50:08;100282.19;;;18.56;100.00
3142;BME280;1581;51.568;6.998;2023-07-31T03:52:35;100275.16;;;18.55;100.00
3142;BME280;1581;51.568;6.998;2023-07-31T03:55:04;100275.13;;;18.50;100.00
3142;BME280;1581;51.568;6.998;2023-07-31T03:57:34;100270.97;;;18.42;100.00
3142;BME280;1581;51.568;6.998;2023-07-31T04:00:08;100271.75;;;18.43;100.00
3142;BME280;1581;51.568;6.998;2023-07-31T04:02:35;100272.41;;;18.50;100.00
3142;BME280;1581;51.568;6.998;2023-07-31T04:05:04;100281.56;;;18.49;100.00
3142;BME280;1581;51.568;6.998;2023-07-31T04:07:31;100276.31;;;18.59;100.00
3142;BME280;1581;51.568;6.998;2023-07-31T04:09:59;100271.66;;;18.54;100.00
3142;BME280;1581;51.568;6.998;2023-07-31T04:12:27;100267.06;;;18.55;100.00
3142;BME280;1581;51.568;6.998;2023-07-31T04:14:56;100269.28;;;18.58;100.00
3142;BME280;1581;51.568;6.998;2023-07-31T04:17:23;100262.72;;;18.54;100.00
3142;BME280;1581;51.568;6.998;2023-07-31T04:19:51;100269.28;;;18.58;100.00
3142;BME280;1581;51.568;6.998;2023-07-31T04:22:19;100269.75;;;18.55;100.00
3142;BME280;1581;51.568;6.998;2023-07-31T04:24:47;100258.47;;;18.58;100.00
3142;BME280;1581;51.568;6.998;2023-07-31T04:27:15;100253.66;;;18.60;100.00
3142;BME280;1581;51.568;6.998;2023-07-31T04:29:43;100257.41;;;18.59;100.00
3142;BME280;1581;51.568;6.998;2023-07-31T04:32:13;100254.72;;;18.59;100.00
3142;BME280;1581;51.568;6.998;2023-07-31T04:34:42;100252.16;;;18.74;100.00
3142;BME280;1581;51.568;6.998;2023-07-31T04:37:10;100253.00;;;18.74;100.00
3142;BME280;1581;51.568;6.998;2023-07-31T04:39:39;100257.00;;;18.72;100.00
3142;BME280;1581;51.568;6.998;2023-07-31T04:42:07;100252.44;;;18.72;100.00
3142;BME280;1581;51.568;6.998;2023-07-31T04:44:35;100254.88;;;18.74;100.00
3142;BME280;1581;51.568;6.998;2023-07-31T04:47:03;100247.91;;;18.78;100.00
3142;BME280;1581;51.568;6.998;2023-07-31T04:49:33;100245.59;;;18.86;100.00
3142;BME280;1581;51.568;6.998;2023-07-31T04:52:00;100253.34;;;18.83;100.00
3142;BME280;1581;51.568;6.998;2023-07-31T04:54:28;100246.22;;;18.72;100.00
3142;BME280;1581;51.568;6.998;2023-07-31T04:56:56;100244.91;;;18.74;100.00
3142;BME280;1581;51.568;6.998;2023-07-31T04:59:23;100245.03;;;18.84;100.00
3142;BME280;1581;51.568;6.998;2023-07-31T05:01:51;100244.72;;;18.81;100.00
3142;BME280;1581;51.568;6.998;2023-07-31T05:04:19;100242.25;;;18.79;100.00
3142;BME280;1581;51.568;6.998;2023-07-31T05:06:47;100232.28;;;18.80;100.00
3142;BME280;1581;51.568;6.998;2023-07-31T05:09:15;100244.25;;;18.89;100.00
3142;BME280;1581;51.568;6.998;2023-07-31T05:11:44;100235.47;;;18.77;100.00
3142;BME280;1581;51.568;6.998;2023-07-31T05:14:11;100231.81;;;18.88;100.00
3142;BME280;1581;51.568;6.998;2023-07-31T05:16:39;100228.00;;;18.84;100.00
3142;BME280;1581;51.568;6.998;2023-07-31T05:19:07;100229.13;;;18.88;100.00
3142;BME280;1581;51.568;6.998;2023-07-31T05:21:34;100218.88;;;18.90;100.00
3142;BME280;1581;51.568;6.998;2023-07-31T05:24:04;100218.22;;;18.78;100.00
3142;BME280;1581;51.568;6.998;2023-07-31T05:26:32;100221.28;;;18.86;100.00
3142;BME280;1581;51.568;6.998;2023-07-31T05:29:00;100220.47;;;18.86;100.00
3142;BME280;1581;51.568;6.998;2023-07-31T05:31:28;100212.34;;;18.86;100.00
3142;BME280;1581;51.568;6.998;2023-07-31T05:33:55;100212.09;;;18.87;100.00
3142;BME280;1581;51.568;6.998;2023-07-31T05:36:23;100219.31;;;18.82;100.00
3142;BME280;1581;51.568;6.998;2023-07-31T05:38:51;100219.13;;;18.88;100.00
3142;BME280;1581;51.568;6.998;2023-07-31T05:41:20;100219.69;;;18.90;100.00
3142;BME280;1581;51.568;6.998;2023-07-31T05:43:48;100203.78;;;18.94;100.00
3142;BME280;1581;51.568;6.998;2023-07-31T05:46:15;100193.81;;;18.94;100.00
3142;BME280;1581;51.568;6.998;2023-07-31T05:48:43;100193.53;;;18.91;100.00
3142;BME280;1581;51.568;6.998;2023-07-31T05:51:11;100200.53;;;18.92;100.00
3142;BME280;1581;51.568;6.998;2023-07-31T05:53:38;100201.75;;;18.79;100.00
3142;BME280;1581;51.568;6.998;2023-07-31T05:56:06;100201.41;;;18.71;100.00
3142;BME280;1581;51.568;6.998;2023-07-31T05:58:36;100198.38;;;18.67;100.00
3142;BME280;1581;51.568;6.998;2023-07-31T06:01:04;100176.03;;;18.72;100.00
3142;BME280;1581;51.568;6.998;2023-07-31T06:03:32;100175.59;;;18.80;100.00
3142;BME280;1581;51.568;6.998;2023-07-31T06:06:00;100183.59;;;18.70;100.00
3142;BME280;1581;51.568;6.998;2023-07-31T06:08:29;100176.75;;;18.62;100.00
3142;BME280;1581;51.568;6.998;2023-07-31T06:10:57;100176.34;;;18.75;100.00
3142;BME280;1581;51.568;6.998;2023-07-31T06:13:25;100181.84;;;18.85;100.00
3142;BME280;1581;51.568;6.998;2023-07-31T06:15:54;100173.97;;;18.79;100.00
3142;BME280;1581;51.568;6.998;2023-07-31T06:18:22;100176.19;;;18.87;100.00
3142;BME280;1581;51.568;6.998;2023-07-31T06:20:51;100178.97;;;18.97;100.00
3142;BME280;1581;51.568;6.998;2023-07-31T06:23:20;100173.09;;;19.00;100.00
3142;BME280;1581;51.568;6.998;2023-07-31T06:25:47;100165.56;;;19.06;100.00
3142;BME280;1581;51.568;6.998;2023-07-31T06:28:15;100171.47;;;19.03;100.00
3142;BME280;1581;51.568;6.998;2023-07-31T06:30:43;100166.63;;;19.05;100.00
3142;BME280;1581;51.568;6.998;2023-07-31T06:33:20;100158.34;;;19.12;100.00
3142;BME280;1581;51.568;6.998;2023-07-31T06:35:49;100164.78;;;19.06;100.00
3142;BME280;1581;51.568;6.998;2023-07-31T06:38:22;100163.94;;;19.05;100.00
3142;BME280;1581;51.568;6.998;2023-07-31T06:40:51;100165.50;;;19.01;100.00
3142;BME280;1581;51.568;6.998;2023-07-31T06:43:19;100158.84;;;19.09;100.00
3142;BME280;1581;51.568;6.998;2023-07-31T06:45:47;100169.47;;;19.15;100.00
3142;BME280;1581;51.568;6.998;2023-07-31T06:48:18;100166.56;;;19.22;100.00
3142;BME280;1581;51.568;6.998;2023-07-31T06:50:46;100156.31;;;19.24;100.00
3142;BME280;1581;51.568;6.998;2023-07-31T06:53:14;100151.38;;;19.16;100.00
3142;BME280;1581;51.568;6.998;2023-07-31T06:55:41;100157.03;;;19.14;100.00
3142;BME280;1581;51.568;6.998;2023-07-31T06:58:09;100168.28;;;19.06;100.00
3142;BME280;1581;51.568;6.998;2023-07-31T07:00:37;100161.50;;;19.04;100.00
3142;BME280;1581;51.568;6.998;2023-07-31T07:03:05;100167.13;;;18.98;100.00
3142;BME280;1581;51.568;6.998;2023-07-31T07:05:34;100162.59;;;19.08;100.00
3142;BME280;1581;51.568;6.998;2023-07-31T07:08:02;100149.38;;;19.06;100.00
3142;BME280;1581;51.568;6.998;2023-07-31T07:10:31;100162.69;;;19.13;100.00
3142;BME280;1581;51.568;6.998;2023-07-31T07:12:59;100146.66;;;19.06;100.00
3142;BME280;1581;51.568;6.998;2023-07-31T07:15:27;100152.06;;;19.06;100.00
3142;BME280;1581;51.568;6.998;2023-07-31T07:17:55;100157.69;;;19.00;100.00
3142;BME280;1581;51.568;6.998;2023-07-31T07:20:22;100162.31;;;19.04;100.00
3142;BME280;1581;51.568;6.998;2023-07-31T07:22:51;100154.63;;;18.92;100.00
3142;BME280;1581;51.568;6.998;2023-07-31T07:25:19;100147.56;;;18.86;100.00
3142;BME280;1581;51.568;6.998;2023-07-31T07:27:48;100141.13;;;18.92;100.00
3142;BME280;1581;51.568;6.998;2023-07-31T07:30:34;100145.16;;;18.89;100.00
3142;BME280;1581;51.568;6.998;2023-07-31T07:33:06;100143.81;;;18.92;100.00
3142;BME280;1581;51.568;6.998;2023-07-31T07:35:34;100140.91;;;18.98;100.00
3142;BME280;1581;51.568;6.998;2023-07-31T07:38:03;100139.75;;;18.89;100.00
3142;BME280;1581;51.568;6.998;2023-07-31T07:40:31;100161.34;;;18.89;100.00
3142;BME280;1581;51.568;6.998;2023-07-31T07:42:59;100150.81;;;18.88;100.00
3142;BME280;1581;51.568;6.998;2023-07-31T07:45:26;100146.13;;;18.78;100.00
3142;BME280;1581;51.568;6.998;2023-07-31T07:47:54;100143.59;;;18.93;100.00
3142;BME280;1581;51.568;6.998;2023-07-31T07:50:22;100141.38;;;18.90;100.00
3142;BME280;1581;51.568;6.998;2023-07-31T07:52:49;100145.16;;;18.89;100.00
3142;BME280;1581;51.568;6.998;2023-07-31T07:55:19;100133.69;;;18.77;100.00
3142;BME280;1581;51.568;6.998;2023-07-31T07:57:46;100137.81;;;18.85;100.00
3142;BME280;1581;51.568;6.998;2023-07-31T08:00:19;100143.63;;;18.98;100.00
3142;BME280;1581;51.568;6.998;2023-07-31T08:02:47;100149.47;;;19.11;100.00
3142;BME280;1581;51.568;6.998;2023-07-31T08:05:16;100146.16;;;19.09;100.00
3142;BME280;1581;51.568;6.998;2023-07-31T08:07:44;100136.75;;;19.12;100.00
3142;BME280;1581;51.568;6.998;2023-07-31T08:10:12;100141.75;;;18.99;100.00
3142;BME280;1581;51.568;6.998;2023-07-31T08:12:42;100131.19;;;18.97;100.00
3142;BME280;1581;51.568;6.998;2023-07-31T08:15:14;100121.72;;;18.95;100.00
3142;BME280;1581;51.568;6.998;2023-07-31T08:17:47;100119.88;;;19.00;100.00
3142;BME280;1581;51.568;6.998;2023-07-31T08:20:24;100119.38;;;19.03;100.00
3142;BME280;1581;51.568;6.998;2023-07-31T08:23:04;100119.94;;;19.05;100.00
3142;BME280;1581;51.568;6.998;2023-07-31T08:25:47;100124.91;;;18.92;100.00
3142;BME280;1581;51.568;6.998;2023-07-31T08:28:33;100120.56;;;18.86;100.00
3142;BME280;1581;51.568;6.998;2023-07-31T08:31:16;100116.44;;;18.78;100.00
3142;BME280;1581;51.568;6.998;2023-07-31T08:33:59;100122.66;;;18.79;100.00
3142;BME280;1581;51.568;6.998;2023-07-31T08:36:32;100116.72;;;18.82;100.00
3142;BME280;1581;51.568;6.998;2023-07-31T08:39:00;100106.97;;;18.76;100.00
3142;BME280;1581;51.568;6.998;2023-07-31T08:41:28;100102.16;;;18.83;100.00
3142;BME280;1581;51.568;6.998;2023-07-31T08:43:57;100109.66;;;18.76;100.00
3142;BME280;1581;51.568;6.998;2023-07-31T08:46:26;100116.63;;;18.67;100.00
3142;BME280;1581;51.568;6.998;2023-07-31T08:48:55;100108.81;;;18.70;100.00
3142;BME280;1581;51.568;6.998;2023-07-31T08:51:24;100110.19;;;18.73;100.00
3142;BME280;1581;51.568;6.998;2023-07-31T08:53:53;100111.81;;;18.74;100.00
3142;BME280;1581;51.568;6.998;2023-07-31T08:56:21;100112.72;;;18.84;100.00
3142;BME280;1581;51.568;6.998;2023-07-31T08:58:51;100121.47;;;18.96;100.00
3142;BME280;1581;51.568;6.998;2023-07-31T09:01:20;100127.59;;;18.87;100.00
3142;BME280;1581;51.568;6.998;2023-07-31T09:03:50;100127.59;;;18.87;100.00
3142;BME280;1581;51.568;6.998;2023-07-31T09:06:19;100117.28;;;18.84;100.00
3142;BME280;1581;51.568;6.998;2023-07-31T09:08:49;100119.97;;;18.79;100.00
3142;BME280;1581;51.568;6.998;2023-07-31T09:11:18;100124.00;;;18.76;100.00
3142;BME280;1581;51.568;6.998;2023-07-31T09:13:47;100111.59;;;18.80;100.00
3142;BME280;1581;51.568;6.998;2023-07-31T09:16:15;100117.28;;;18.79;100.00
3142;BME280;1581;51.568;6.998;2023-07-31T09:18:56;100128.41;;;18.87;100.00
3142;BME280;1581;51.568;6.998;2023-07-31T09:21:25;100114.13;;;18.92;100.00
3142;BME280;1581;51.568;6.998;2023-07-31T09:23:54;100116.41;;;19.04;100.00
3142;BME280;1581;51.568;6.998;2023-07-31T09:26:33;100113.91;;;18.98;100.00
3142;BME280;1581;51.568;6.998;2023-07-31T09:29:04;100114.19;;;19.01;100.00
3142;BME280;1581;51.568;6.998;2023-07-31T09:31:41;100103.66;;;19.00;100.00
3142;BME280;1581;51.568;6.998;2023-07-31T09:34:11;100105.34;;;19.06;100.00
3142;BME280;1581;51.568;6.998;2023-07-31T09:36:43;100094.22;;;19.02;100.00
3142;BME280;1581;51.568;6.998;2023-07-31T09:39:13;100097.75;;;19.03;100.00
3142;BME280;1581;51.568;6.998;2023-07-31T09:41:46;100103.56;;;19.16;100.00
3142;BME280;1581;51.568;6.998;2023-07-31T09:44:14;100107.41;;;19.25;100.00
3142;BME280;1581;51.568;6.998;2023-07-31T09:46:42;100107.13;;;19.27;100.00
3142;BME280;1581;51.568;6.998;2023-07-31T09:49:13;100099.94;;;19.37;100.00
3142;BME280;1581;51.568;6.998;2023-07-31T09:51:42;100095.38;;;19.43;100.00
3142;BME280;1581;51.568;6.998;2023-07-31T09:54:11;100089.06;;;19.32;100.00
3142;BME280;1581;51.568;6.998;2023-07-31T09:56:43;100092.81;;;19.21;100.00
3142;BME280;1581;51.568;6.998;2023-07-31T09:59:13;100098.75;;;19.23;100.00
3142;BME280;1581;51.568;6.998;2023-07-31T10:01:43;100085.22;;;19.18;100.00
3142;BME280;1581;51.568;6.998;2023-07-31T10:04:14;100090.75;;;19.43;100.00
3142;BME280;1581;51.568;6.998;2023-07-31T10:06:44;100089.63;;;19.29;100.00
3142;BME280;1581;51.568;6.998;2023-07-31T10:09:16;100092.38;;;19.39;100.00
3142;BME280;1581;51.568;6.998;2023-07-31T10:11:56;100083.59;;;19.22;100.00
3142;BME280;1581;51.568;6.998;2023-07-31T10:14:28;100096.09;;;19.28;100.00
3142;BME280;1581;51.568;6.998;2023-07-31T10:16:58;100080.19;;;19.37;100.00
3142;BME280;1581;51.568;6.998;2023-07-31T10:19:29;100083.22;;;19.45;100.00
3142;BME280;1581;51.568;6.998;2023-07-31T10:21:57;100091.03;;;19.42;100.00
3142;BME280;1581;51.568;6.998;2023-07-31T10:24:25;100096.47;;;19.47;100.00
3142;BME280;1581;51.568;6.998;2023-07-31T10:26:54;100088.59;;;19.40;100.00
3142;BME280;1581;51.568;6.998;2023-07-31T10:29:25;100089.69;;;19.39;100.00
3142;BME280;1581;51.568;6.998;2023-07-31T10:31:57;100083.72;;;19.42;100.00
3142;BME280;1581;51.568;6.998;2023-07-31T10:34:26;100086.09;;;19.29;100.00
3142;BME280;1581;51.568;6.998;2023-07-31T10:37:25;100083.03;;;19.15;100.00
3142;BME280;1581;51.568;6.998;2023-07-31T10:40:02;100081.41;;;19.14;100.00
3142;BME280;1581;51.568;6.998;2023-07-31T10:42:32;100073.34;;;19.19;100.00
3142;BME280;1581;51.568;6.998;2023-07-31T10:45:03;100086.88;;;19.24;100.00
3142;BME280;1581;51.568;6.998;2023-07-31T10:47:31;100089.00;;;19.22;100.00
3142;BME280;1581;51.568;6.998;2023-07-31T10:50:18;100079.75;;;19.13;100.00
3142;BME280;1581;51.568;6.998;2023-07-31T10:52:53;100083.22;;;19.45;100.00
3142;BME280;1581;51.568;6.998;2023-07-31T10:55:32;100072.91;;;19.42;100.00
3142;BME280;1581;51.568;6.998;2023-07-31T10:58:08;100076.78;;;19.51;100.00
3142;BME280;1581;51.568;6.998;2023-07-31T11:00:38;100069.25;;;19.63;100.00
3142;BME280;1581;51.568;6.998;2023-07-31T11:03:10;100072.00;;;19.68;100.00
3142;BME280;1581;51.568;6.998;2023-07-31T11:05:52;100068.16;;;19.59;100.00
3142;BME280;1581;51.568;6.998;2023-07-31T11:08:24;100077.91;;;19.60;100.00
3142;BME280;1581;51.568;6.998;2023-07-31T11:11:06;100072.19;;;19.57;100.00
3142;BME280;1581;51.568;6.998;2023-07-31T11:13:41;100074.66;;;19.58;100.00
3142;BME280;1581;51.568;6.998;2023-07-31T11:16:10;100078.94;;;19.54;100.00
3142;BME280;1581;51.568;6.998;2023-07-31T11:18:41;100075.94;;;19.51;100.00
3142;BME280;1581;51.568;6.998;2023-07-31T11:21:12;100080.63;;;19.60;100.00
3142;BME280;1581;51.568;6.998;2023-07-31T11:23:45;100074.38;;;19.60;100.00
3142;BME280;1581;51.568;6.998;2023-07-31T11:26:13;100079.03;;;19.69;100.00
3142;BME280;1581;51.568;6.998;2023-07-31T11:28:42;100070.38;;;19.67;100.00
3142;BME280;1581;51.568;6.998;2023-07-31T11:31:11;100076.88;;;19.71;100.00
3142;BME280;1581;51.568;6.998;2023-07-31T11:33:39;100075.53;;;19.74;100.00
3142;BME280;1581;51.568;6.998;2023-07-31T11:36:10;100067.63;;;19.62;100.00
3142;BME280;1581;51.568;6.998;2023-07-31T11:38:45;100061.16;;;19.63;100.00
3142;BME280;1581;51.568;6.998;2023-07-31T11:41:15;100060.06;;;19.64;100.00
3142;BME280;1581;51.568;6.998;2023-07-31T11:43:44;100065.47;;;19.64;100.00
3142;BME280;1581;51.568;6.998;2023-07-31T11:46:14;100058.00;;;19.86;100.00
3142;BME280;1581;51.568;6.998;2023-07-31T11:48:42;100058.28;;;19.89;100.00
3142;BME280;1581;51.568;6.998;2023-07-31T11:51:12;100058.09;;;20.01;100.00
3142;BME280;1581;51.568;6.998;2023-07-31T11:53:45;100064.34;;;20.11;100.00
3142;BME280;1581;51.568;6.998;2023-07-31T11:56:17;100067.06;;;20.21;100.00
3142;BME280;1581;51.568;6.998;2023-07-31T11:58:47;100070.31;;;20.18;100.00
3142;BME280;1581;51.568;6.998;2023-07-31T12:01:16;100064.09;;;20.18;100.00
3142;BME280;1581;51.568;6.998;2023-07-31T12:03:46;100075.97;;;20.12;100.00
3142;BME280;1581;51.568;6.998;2023-07-31T12:06:14;100067.81;;;19.97;100.00
3142;BME280;1581;51.568;6.998;2023-07-31T12:08:43;100076.50;;;19.99;100.00
3142;BME280;1581;51.568;6.998;2023-07-31T12:11:11;100066.78;;;20.13;100.00
3142;BME280;1581;51.568;6.998;2023-07-31T12:13:39;100057.28;;;20.00;100.00
3142;BME280;1581;51.568;6.998;2023-07-31T12:16:07;100051.88;;;20.00;100.00
3142;BME280;1581;51.568;6.998;2023-07-31T12:18:37;100057.00;;;20.02;100.00
3142;BME280;1581;51.568;6.998;2023-07-31T12:21:07;100045.03;;;19.93;100.00
3142;BME280;1581;51.568;6.998;2023-07-31T12:23:37;100053.25;;;20.13;100.00
3142;BME280;1581;51.568;6.998;2023-07-31T12:26:11;100056.50;;;20.10;100.00
3142;BME280;1581;51.568;6.998;2023-07-31T12:28:42;100059.72;;;20.12;100.00
3142;BME280;1581;51.568;6.998;2023-07-31T12:31:12;100048.63;;;20.03;100.00
3142;BME280;1581;51.568;6.998;2023-07-31T12:33:41;100048.88;;;19.97;100.00
3142;BME280;1581;51.568;6.998;2023-07-31T12:36:11;100049.44;;;19.99;100.00
3142;BME280;1581;51.568;6.998;2023-07-31T12:38:40;100048.38;;;20.00;100.00
3142;BME280;1581;51.568;6.998;2023-07-31T12:41:09;100052.69;;;20.06;100.00
3142;BME280;1581;51.568;6.998;2023-07-31T12:43:39;100043.22;;;20.08;100.00
3142;BME280;1581;51.568;6.998;2023-07-31T12:46:08;100041.38;;;20.24;100.00
3142;BME280;1581;51.568;6.998;2023-07-31T12:48:36;100040.28;;;20.25;100.00
3142;BME280;1581;51.568;6.998;2023-07-31T12:51:04;100039.75;;;20.23;100.00
3142;BME280;1581;51.568;6.998;2023-07-31T12:53:33;100049.22;;;20.15;100.00
3142;BME280;1581;51.568;6.998;2023-07-31T12:56:01;100036.25;;;20.22;100.00
3142;BME280;1581;51.568;6.998;2023-07-31T12:58:31;100041.09;;;20.15;100.00
3142;BME280;1581;51.568;6.998;2023-07-31T13:01:00;100025.16;;;20.29;100.00
3142;BME280;1581;51.568;6.998;2023-07-31T13:03:29;100023.53;;;20.28;100.00
3142;BME280;1581;51.568;6.998;2023-07-31T13:05:57;100034.34;;;20.28;100.00
3142;BME280;1581;51.568;6.998;2023-07-31T13:08:24;100011.63;;;20.34;100.00
3142;BME280;1581;51.568;6.998;2023-07-31T13:10:52;100009.50;;;20.41;100.00
3142;BME280;1581;51.568;6.998;2023-07-31T13:13:20;99991.34;;;20.31;100.00